sensor_id;sensor_type;location;lat;lon;timestamp;P1;durP1;ratioP1;P2;durP2;ratioP2
15706;SDS011;7953;54.302;10.128;2024-03-08T00:00:05;12.83;;;8.10;;
15706;SDS011;7953;54.302;10.128;2024-03-08T00:02:37;16.37;;;9.37;;
15706;SDS011;7953;54.302;10.128;2024-03-08T00:05:04;13.50;;;9.43;;
15706;SDS011;7953;54.302;10.128;2024-03-08T00:07:33;12.67;;;8.03;;
15706;SDS011;7953;54.302;10.128;2024-03-08T00:10:01;14.10;;;9.60;;
15706;SDS011;7953;54.302;10.128;2024-03-08T00:12:28;12.57;;;8.70;;
15706;SDS011;7953;54.302;10.128;2024-03-08T00:14:55;10.43;;;8.53;;
15706;SDS011;7953;54.302;10.128;2024-03-08T00:17:23;15.17;;;9.13;;
15706;SDS011;7953;54.302;10.128;2024-03-08T00:19:52;10.53;;;7.93;;
15706;SDS011;7953;54.302;10.128;2024-03-08T00:22:19;15.47;;;8.50;;
15706;SDS011;7953;54.302;10.128;2024-03-08T00:24:47;12.97;;;8.10;;
15706;SDS011;7953;54.302;10.128;2024-03-08T00:27:15;10.30;;;7.60;;
15706;SDS011;7953;54.302;10.128;2024-03-08T00:29:42;13.47;;;8.30;;
15706;SDS011;7953;54.302;10.128;2024-03-08T00:32:10;13.97;;;8.67;;
15706;SDS011;7953;54.302;10.128;2024-03-08T00:34:38;14.43;;;8.73;;
15706;SDS011;7953;54.302;10.128;2024-03-08T00:37:05;11.27;;;7.77;;
15706;SDS011;7953;54.302;10.128;2024-03-08T00:39:32;11.60;;;8.10;;
15706;SDS011;7953;54.302;10.128;2024-03-08T00:41:58;12.67;;;8.70;;
15706;SDS011;7953;54.302;10.128;2024-03-08T00:44:25;15.00;;;8.73;;
15706;SDS011;7953;54.302;10.128;2024-03-08T00:46:52;12.27;;;9.03;;
15706;SDS011;7953;54.302;10.128;2024-03-08T00:49:19;14.67;;;7.87;;
15706;SDS011;7953;54.302;10.128;2024-03-08T00:51:48;15.20;;;9.13;;
15706;SDS011;7953;54.302;10.128;2024-03-08T00:54:14;12.37;;;8.47;;
15706;SDS011;7953;54.302;10.128;2024-03-08T00:56:42;9.47;;;6.90;;
15706;SDS011;7953;54.302;10.128;2024-03-08T00:59:09;13.17;;;8.73;;
15706;SDS011;7953;54.302;10.128;2024-03-08T01:01:36;12.50;;;7.80;;
15706;SDS011;7953;54.302;10.128;2024-03-08T01:04:03;12.97;;;9.10;;
15706;SDS011;7953;54.302;10.128;2024-03-08T01:06:30;12.70;;;8.23;;
15706;SDS011;7953;54.302;10.128;2024-03-08T01:08:58;17.00;;;9.20;;
15706;SDS011;7953;54.302;10.128;2024-03-08T01:11:25;13.97;;;8.97;;
15706;SDS011;7953;54.302;10.128;2024-03-08T01:13:53;18.67;;;9.20;;
15706;SDS011;7953;54.302;10.128;2024-03-08T01:16:19;17.40;;;10.30;;
15706;SDS011;7953;54.302;10.128;2024-03-08T01:18:46;17.77;;;9.97;;
15706;SDS011;7953;54.302;10.128;2024-03-08T01:21:13;12.93;;;8.93;;
15706;SDS011;7953;54.302;10.128;2024-03-08T01:23:40;16.13;;;8.93;;
15706;SDS011;7953;54.302;10.128;2024-03-08T01:26:09;11.77;;;9.13;;
15706;SDS011;7953;54.302;10.128;2024-03-08T01:28:36;16.27;;;9.13;;
15706;SDS011;7953;54.302;10.128;2024-03-08T01:31:03;14.53;;;9.87;;
15706;SDS011;7953;54.302;10.128;2024-03-08T01:33:31;14.33;;;9.83;;
15706;SDS011;7953;54.302;10.128;2024-03-08T01:35:58;14.30;;;9.77;;
15706;SDS011;7953;54.302;10.128;2024-03-08T01:38:25;15.27;;;9.60;;
15706;SDS011;7953;54.302;10.128;2024-03-08T01:40:51;14.03;;;8.77;;
15706;SDS011;7953;54.302;10.128;2024-03-08T01:43:20;14.33;;;9.03;;
15706;SDS011;7953;54.302;10.128;2024-03-08T01:45:48;15.77;;;9.83;;
15706;SDS011;7953;54.302;10.128;2024-03-08T01:48:15;12.53;;;9.30;;
15706;SDS011;7953;54.302;10.128;2024-03-08T01:50:43;13.63;;;10.00;;
15706;SDS011;7953;54.302;10.128;2024-03-08T01:53:10;13.40;;;9.53;;
15706;SDS011;7953;54.302;10.128;2024-03-08T01:55:38;16.23;;;8.80;;
15706;SDS011;7953;54.302;10.128;2024-03-08T01:58:05;14.17;;;9.67;;
15706;SDS011;7953;54.302;10.128;2024-03-08T02:00:34;15.77;;;9.27;;
15706;SDS011;7953;54.302;10.128;2024-03-08T02:03:03;13.50;;;9.30;;
15706;SDS011;7953;54.302;10.128;2024-03-08T02:05:30;19.93;;;9.73;;
15706;SDS011;7953;54.302;10.128;2024-03-08T02:07:58;14.93;;;8.83;;
15706;SDS011;7953;54.302;10.128;2024-03-08T02:10:24;16.60;;;8.93;;
15706;SDS011;7953;54.302;10.128;2024-03-08T02:12:51;15.37;;;9.93;;
15706;SDS011;7953;54.302;10.128;2024-03-08T02:15:18;15.47;;;9.97;;
15706;SDS011;7953;54.302;10.128;2024-03-08T02:17:47;15.07;;;9.17;;
15706;SDS011;7953;54.302;10.128;2024-03-08T02:20:14;12.87;;;9.10;;
15706;SDS011;7953;54.302;10.128;2024-03-08T02:22:43;12.90;;;8.43;;
15706;SDS011;7953;54.302;10.128;2024-03-08T02:25:09;15.30;;;9.83;;
15706;SDS011;7953;54.302;10.128;2024-03-08T02:27:37;15.10;;;9.47;;
15706;SDS011;7953;54.302;10.128;2024-03-08T02:30:04;14.17;;;9.00;;
15706;SDS011;7953;54.302;10.128;2024-03-08T02:32:32;16.70;;;9.47;;
15706;SDS011;7953;54.302;10.128;2024-03-08T02:34:59;15.70;;;10.13;;
15706;SDS011;7953;54.302;10.128;2024-03-08T02:37:25;16.87;;;10.50;;
15706;SDS011;7953;54.302;10.128;2024-03-08T02:39:54;15.10;;;9.23;;
15706;SDS011;7953;54.302;10.128;2024-03-08T02:42:21;13.73;;;9.33;;
15706;SDS011;7953;54.302;10.128;2024-03-08T02:44:49;21.23;;;10.20;;
15706;SDS011;7953;54.302;10.128;2024-03-08T02:47:16;17.57;;;11.00;;
15706;SDS011;7953;54.302;10.128;2024-03-08T02:49:42;15.20;;;10.63;;
15706;SDS011;7953;54.302;10.128;2024-03-08T02:52:09;15.13;;;9.67;;
15706;SDS011;7953;54.302;10.128;2024-03-08T02:54:36;17.07;;;10.70;;
15706;SDS011;7953;54.302;10.128;2024-03-08T02:57:04;19.87;;;10.40;;
15706;SDS011;7953;54.302;10.128;2024-03-08T02:59:32;17.27;;;11.37;;
15706;SDS011;7953;54.302;10.128;2024-03-08T03:01:59;20.03;;;11.83;;
15706;SDS011;7953;54.302;10.128;2024-03-08T03:04:26;19.93;;;12.20;;
15706;SDS011;7953;54.302;10.128;2024-03-08T03:06:53;19.97;;;11.70;;
15706;SDS011;7953;54.302;10.128;2024-03-08T03:09:20;18.50;;;12.17;;
15706;SDS011;7953;54.302;10.128;2024-03-08T03:11:52;17.50;;;11.80;;
15706;SDS011;7953;54.302;10.128;2024-03-08T03:14:22;19.33;;;12.73;;
15706;SDS011;7953;54.302;10.128;2024-03-08T03:16:49;21.27;;;14.37;;
15706;SDS011;7953;54.302;10.128;2024-03-08T03:19:15;19.87;;;12.40;;
15706;SDS011;7953;54.302;10.128;2024-03-08T03:21:42;22.87;;;13.60;;
15706;SDS011;7953;54.302;10.128;2024-03-08T03:24:09;22.43;;;13.23;;
15706;SDS011;7953;54.302;10.128;2024-03-08T03:26:37;20.87;;;13.73;;
15706;SDS011;7953;54.302;10.128;2024-03-08T03:29:05;20.07;;;12.60;;
15706;SDS011;7953;54.302;10.128;2024-03-08T03:31:35;20.30;;;13.33;;
15706;SDS011;7953;54.302;10.128;2024-03-08T03:34:02;22.47;;;14.63;;
15706;SDS011;7953;54.302;10.128;2024-03-08T03:36:29;23.87;;;14.73;;
15706;SDS011;7953;54.302;10.128;2024-03-08T03:38:56;20.80;;;14.97;;
15706;SDS011;7953;54.302;10.128;2024-03-08T03:41:32;24.87;;;16.43;;
15706;SDS011;7953;54.302;10.128;2024-03-08T03:43:59;29.80;;;16.50;;
15706;SDS011;7953;54.302;10.128;2024-03-08T03:46:26;24.77;;;15.93;;
15706;SDS011;7953;54.302;10.128;2024-03-08T03:48:54;24.73;;;15.23;;
15706;SDS011;7953;54.302;10.128;2024-03-08T03:51:21;23.43;;;15.93;;
15706;SDS011;7953;54.302;10.128;2024-03-08T03:53:48;24.70;;;16.67;;
15706;SDS011;7953;54.302;10.128;2024-03-08T03:56:15;29.50;;;16.40;;
15706;SDS011;7953;54.302;10.128;2024-03-08T03:58:41;24.17;;;16.63;;
15706;SDS011;7953;54.302;10.128;2024-03-08T04:01:08;23.83;;;16.80;;
15706;SDS011;7953;54.302;10.128;2024-03-08T04:03:35;27.50;;;17.27;;
15706;SDS011;7953;54.302;10.128;2024-03-08T04:06:04;30.07;;;17.53;;
15706;SDS011;7953;54.302;10.128;2024-03-08T04:08:31;28.23;;;17.23;;
15706;SDS011;7953;54.302;10.128;2024-03-08T04:10:59;28.60;;;17.27;;
15706;SDS011;7953;54.302;10.128;2024-03-08T04:13:26;24.90;;;17.37;;
15706;SDS011;7953;54.302;10.128;2024-03-08T04:15:53;30.00;;;18.53;;
15706;SDS011;7953;54.302;10.128;2024-03-08T04:18:20;27.40;;;17.70;;
15706;SDS011;7953;54.302;10.128;2024-03-08T04:20:47;28.30;;;18.70;;
15706;SDS011;7953;54.302;10.128;2024-03-08T04:23:15;25.80;;;18.03;;
15706;SDS011;7953;54.302;10.128;2024-03-08T04:25:43;29.73;;;19.33;;
15706;SDS011;7953;54.302;10.128;2024-03-08T04:28:09;27.47;;;19.20;;
15706;SDS011;7953;54.302;10.128;2024-03-08T04:30:36;30.97;;;18.03;;
15706;SDS011;7953;54.302;10.128;2024-03-08T04:33:04;29.77;;;18.07;;
15706;SDS011;7953;54.302;10.128;2024-03-08T04:35:31;31.63;;;18.70;;
15706;SDS011;7953;54.302;10.128;2024-03-08T04:37:58;32.07;;;20.00;;
15706;SDS011;7953;54.302;10.128;2024-03-08T04:40:26;29.17;;;19.13;;
15706;SDS011;7953;54.302;10.128;2024-03-08T04:42:53;30.50;;;18.60;;
15706;SDS011;7953;54.302;10.128;2024-03-08T04:45:20;29.97;;;19.03;;
15706;SDS011;7953;54.302;10.128;2024-03-08T04:47:47;30.77;;;18.63;;
15706;SDS011;7953;54.302;10.128;2024-03-08T04:50:14;27.90;;;18.53;;
15706;SDS011;7953;54.302;10.128;2024-03-08T04:52:41;29.93;;;18.10;;
15706;SDS011;7953;54.302;10.128;2024-03-08T04:55:08;33.37;;;19.93;;
15706;SDS011;7953;54.302;10.128;2024-03-08T04:57:36;28.73;;;18.73;;
15706;SDS011;7953;54.302;10.128;2024-03-08T05:00:03;27.37;;;18.93;;
15706;SDS011;7953;54.302;10.128;2024-03-08T05:02:36;27.33;;;18.33;;
15706;SDS011;7953;54.302;10.128;2024-03-08T05:05:04;32.07;;;18.70;;
15706;SDS011;7953;54.302;10.128;2024-03-08T05:07:32;29.50;;;19.40;;
15706;SDS011;7953;54.302;10.128;2024-03-08T05:09:59;29.03;;;18.17;;
15706;SDS011;7953;54.302;10.128;2024-03-08T05:12:27;30.93;;;18.63;;
15706;SDS011;7953;54.302;10.128;2024-03-08T05:14:55;26.50;;;18.73;;
15706;SDS011;7953;54.302;10.128;2024-03-08T05:17:22;26.87;;;18.10;;
15706;SDS011;7953;54.302;10.128;2024-03-08T05:19:49;27.57;;;17.73;;
15706;SDS011;7953;54.302;10.128;2024-03-08T05:22:16;29.37;;;17.73;;
15706;SDS011;7953;54.302;10.128;2024-03-08T05:24:44;31.13;;;18.13;;
15706;SDS011;7953;54.302;10.128;2024-03-08T05:27:11;23.87;;;16.50;;
15706;SDS011;7953;54.302;10.128;2024-03-08T05:29:38;27.90;;;18.10;;
15706;SDS011;7953;54.302;10.128;2024-03-08T05:32:07;25.30;;;17.50;;
15706;SDS011;7953;54.302;10.128;2024-03-08T05:34:35;26.03;;;17.43;;
15706;SDS011;7953;54.302;10.128;2024-03-08T05:37:01;26.43;;;18.03;;
15706;SDS011;7953;54.302;10.128;2024-03-08T05:39:28;30.57;;;18.73;;
15706;SDS011;7953;54.302;10.128;2024-03-08T05:41:55;23.40;;;16.90;;
15706;SDS011;7953;54.302;10.128;2024-03-08T05:44:22;29.90;;;17.60;;
15706;SDS011;7953;54.302;10.128;2024-03-08T05:46:49;28.43;;;17.30;;
15706;SDS011;7953;54.302;10.128;2024-03-08T05:49:17;23.57;;;16.40;;
15706;SDS011;7953;54.302;10.128;2024-03-08T05:51:44;26.63;;;18.07;;
15706;SDS011;7953;54.302;10.128;2024-03-08T05:54:13;27.40;;;17.00;;
15706;SDS011;7953;54.302;10.128;2024-03-08T05:56:40;26.50;;;16.77;;
15706;SDS011;7953;54.302;10.128;2024-03-08T05:59:08;23.43;;;16.57;;
15706;SDS011;7953;54.302;10.128;2024-03-08T06:01:35;25.00;;;16.30;;
15706;SDS011;7953;54.302;10.128;2024-03-08T06:04:03;26.33;;;15.83;;
15706;SDS011;7953;54.302;10.128;2024-03-08T06:06:31;25.07;;;17.93;;
15706;SDS011;7953;54.302;10.128;2024-03-08T06:08:58;24.97;;;17.10;;
15706;SDS011;7953;54.302;10.128;2024-03-08T06:11:25;29.23;;;18.93;;
15706;SDS011;7953;54.302;10.128;2024-03-08T06:13:53;23.80;;;16.67;;
15706;SDS011;7953;54.302;10.128;2024-03-08T06:16:24;26.87;;;16.63;;
15706;SDS011;7953;54.302;10.128;2024-03-08T06:18:54;25.30;;;17.07;;
15706;SDS011;7953;54.302;10.128;2024-03-08T06:21:22;24.03;;;16.33;;
15706;SDS011;7953;54.302;10.128;2024-03-08T06:23:52;25.07;;;16.73;;
15706;SDS011;7953;54.302;10.128;2024-03-08T06:26:20;30.73;;;18.27;;
15706;SDS011;7953;54.302;10.128;2024-03-08T06:28:47;30.23;;;18.77;;
15706;SDS011;7953;54.302;10.128;2024-03-08T06:31:16;29.07;;;18.73;;
15706;SDS011;7953;54.302;10.128;2024-03-08T06:33:42;29.70;;;18.80;;
15706;SDS011;7953;54.302;10.128;2024-03-08T06:36:10;27.53;;;18.93;;
15706;SDS011;7953;54.302;10.128;2024-03-08T06:38:38;27.50;;;18.10;;
15706;SDS011;7953;54.302;10.128;2024-03-08T06:41:08;31.10;;;18.83;;
15706;SDS011;7953;54.302;10.128;2024-03-08T06:43:40;29.20;;;19.43;;
15706;SDS011;7953;54.302;10.128;2024-03-08T06:46:07;28.80;;;20.10;;
15706;SDS011;7953;54.302;10.128;2024-03-08T06:48:34;28.80;;;18.47;;
15706;SDS011;7953;54.302;10.128;2024-03-08T06:51:02;31.70;;;19.90;;
15706;SDS011;7953;54.302;10.128;2024-03-08T06:53:29;32.00;;;19.67;;
15706;SDS011;7953;54.302;10.128;2024-03-08T06:55:56;28.50;;;20.13;;
15706;SDS011;7953;54.302;10.128;2024-03-08T06:58:25;30.33;;;18.77;;
15706;SDS011;7953;54.302;10.128;2024-03-08T07:00:52;29.60;;;20.27;;
15706;SDS011;7953;54.302;10.128;2024-03-08T07:03:23;31.83;;;21.30;;
15706;SDS011;7953;54.302;10.128;2024-03-08T07:05:51;29.37;;;19.67;;
15706;SDS011;7953;54.302;10.128;2024-03-08T07:08:18;32.60;;;19.87;;
15706;SDS011;7953;54.302;10.128;2024-03-08T07:10:47;28.63;;;19.40;;
15706;SDS011;7953;54.302;10.128;2024-03-08T07:13:14;31.57;;;19.83;;
15706;SDS011;7953;54.302;10.128;2024-03-08T07:15:43;27.17;;;19.57;;
15706;SDS011;7953;54.302;10.128;2024-03-08T07:18:10;27.53;;;20.53;;
15706;SDS011;7953;54.302;10.128;2024-03-08T07:20:39;28.37;;;20.20;;
15706;SDS011;7953;54.302;10.128;2024-03-08T07:23:07;28.57;;;20.43;;
15706;SDS011;7953;54.302;10.128;2024-03-08T07:25:35;30.93;;;21.00;;
15706;SDS011;7953;54.302;10.128;2024-03-08T07:28:04;31.40;;;21.03;;
15706;SDS011;7953;54.302;10.128;2024-03-08T07:30:32;27.03;;;20.40;;
15706;SDS011;7953;54.302;10.128;2024-03-08T07:33:18;31.73;;;20.83;;
15706;SDS011;7953;54.302;10.128;2024-03-08T07:35:47;29.40;;;19.43;;
15706;SDS011;7953;54.302;10.128;2024-03-08T07:38:15;31.70;;;20.47;;
15706;SDS011;7953;54.302;10.128;2024-03-08T07:40:42;28.83;;;20.30;;
15706;SDS011;7953;54.302;10.128;2024-03-08T07:43:10;27.07;;;19.00;;
15706;SDS011;7953;54.302;10.128;2024-03-08T07:45:37;35.27;;;21.93;;
15706;SDS011;7953;54.302;10.128;2024-03-08T07:48:04;30.33;;;20.50;;
15706;SDS011;7953;54.302;10.128;2024-03-08T07:50:36;26.90;;;20.23;;
15706;SDS011;7953;54.302;10.128;2024-03-08T07:53:04;30.30;;;19.17;;
15706;SDS011;7953;54.302;10.128;2024-03-08T07:55:31;27.07;;;20.40;;
15706;SDS011;7953;54.302;10.128;2024-03-08T07:57:58;27.03;;;19.47;;
15706;SDS011;7953;54.302;10.128;2024-03-08T08:00:25;27.93;;;19.87;;
15706;SDS011;7953;54.302;10.128;2024-03-08T08:02:52;26.80;;;18.83;;
15706;SDS011;7953;54.302;10.128;2024-03-08T08:05:19;29.47;;;20.63;;
15706;SDS011;7953;54.302;10.128;2024-03-08T08:07:47;29.33;;;20.33;;
15706;SDS011;7953;54.302;10.128;2024-03-08T08:10:15;27.83;;;20.53;;
15706;SDS011;7953;54.302;10.128;2024-03-08T08:12:43;28.07;;;20.43;;
15706;SDS011;7953;54.302;10.128;2024-03-08T08:15:11;24.83;;;18.80;;
15706;SDS011;7953;54.302;10.128;2024-03-08T08:17:40;28.77;;;20.50;;
15706;SDS011;7953;54.302;10.128;2024-03-08T08:20:07;29.03;;;21.03;;
15706;SDS011;7953;54.302;10.128;2024-03-08T08:22:36;30.33;;;22.10;;
15706;SDS011;7953;54.302;10.128;2024-03-08T08:25:05;38.07;;;25.80;;
15706;SDS011;7953;54.302;10.128;2024-03-08T08:27:33;34.80;;;24.20;;
15706;SDS011;7953;54.302;10.128;2024-03-08T08:30:01;36.33;;;25.37;;
15706;SDS011;7953;54.302;10.128;2024-03-08T08:32:33;33.93;;;22.87;;
15706;SDS011;7953;54.302;10.128;2024-03-08T08:35:00;35.10;;;22.67;;
15706;SDS011;7953;54.302;10.128;2024-03-08T08:37:27;29.63;;;21.17;;
15706;SDS011;7953;54.302;10.128;2024-03-08T08:39:54;30.80;;;21.87;;
15706;SDS011;7953;54.302;10.128;2024-03-08T08:42:23;28.97;;;20.63;;
15706;SDS011;7953;54.302;10.128;2024-03-08T08:44:50;28.07;;;20.60;;
15706;SDS011;7953;54.302;10.128;2024-03-08T08:47:17;28.17;;;20.87;;
15706;SDS011;7953;54.302;10.128;2024-03-08T08:49:44;28.30;;;19.03;;
15706;SDS011;7953;54.302;10.128;2024-03-08T08:52:12;28.40;;;20.83;;
15706;SDS011;7953;54.302;10.128;2024-03-08T08:54:40;26.63;;;20.07;;
15706;SDS011;7953;54.302;10.128;2024-03-08T08:57:07;29.57;;;19.97;;
15706;SDS011;7953;54.302;10.128;2024-03-08T08:59:35;23.77;;;19.00;;
15706;SDS011;7953;54.302;10.128;2024-03-08T09:02:04;26.47;;;19.80;;
15706;SDS011;7953;54.302;10.128;2024-03-08T09:04:31;30.17;;;20.60;;
15706;SDS011;7953;54.302;10.128;2024-03-08T09:06:58;29.83;;;19.77;;
15706;SDS011;7953;54.302;10.128;2024-03-08T09:09:26;23.77;;;17.70;;
15706;SDS011;7953;54.302;10.128;2024-03-08T09:11:53;29.63;;;20.10;;
15706;SDS011;7953;54.302;10.128;2024-03-08T09:14:21;26.03;;;18.87;;
15706;SDS011;7953;54.302;10.128;2024-03-08T09:16:49;24.57;;;18.63;;
15706;SDS011;7953;54.302;10.128;2024-03-08T09:19:16;31.37;;;19.73;;
15706;SDS011;7953;54.302;10.128;2024-03-08T09:21:44;26.57;;;19.10;;
15706;SDS011;7953;54.302;10.128;2024-03-08T09:24:11;25.13;;;18.50;;
15706;SDS011;7953;54.302;10.128;2024-03-08T09:26:38;23.43;;;17.93;;
15706;SDS011;7953;54.302;10.128;2024-03-08T09:29:07;23.97;;;17.30;;
15706;SDS011;7953;54.302;10.128;2024-03-08T09:31:35;24.00;;;17.10;;
15706;SDS011;7953;54.302;10.128;2024-03-08T09:34:04;23.97;;;18.43;;
15706;SDS011;7953;54.302;10.128;2024-03-08T09:36:33;25.47;;;18.10;;
15706;SDS011;7953;54.302;10.128;2024-03-08T09:39:00;22.00;;;16.53;;
15706;SDS011;7953;54.302;10.128;2024-03-08T09:41:27;20.80;;;16.60;;
15706;SDS011;7953;54.302;10.128;2024-03-08T09:43:56;22.30;;;16.90;;
15706;SDS011;7953;54.302;10.128;2024-03-08T09:46:24;22.07;;;16.97;;
15706;SDS011;7953;54.302;10.128;2024-03-08T09:48:52;22.57;;;17.27;;
15706;SDS011;7953;54.302;10.128;2024-03-08T09:51:20;22.07;;;16.80;;
15706;SDS011;7953;54.302;10.128;2024-03-08T09:53:52;20.27;;;16.03;;
15706;SDS011;7953;54.302;10.128;2024-03-08T09:56:19;23.10;;;16.43;;
15706;SDS011;7953;54.302;10.128;2024-03-08T09:58:46;23.33;;;18.40;;
15706;SDS011;7953;54.302;10.128;2024-03-08T10:01:45;24.87;;;17.23;;
15706;SDS011;7953;54.302;10.128;2024-03-08T10:04:11;22.40;;;17.40;;
15706;SDS011;7953;54.302;10.128;2024-03-08T10:06:40;21.43;;;16.87;;
15706;SDS011;7953;54.302;10.128;2024-03-08T10:09:07;19.13;;;16.80;;
15706;SDS011;7953;54.302;10.128;2024-03-08T10:11:35;24.33;;;17.93;;
15706;SDS011;7953;54.302;10.128;2024-03-08T10:14:02;22.70;;;16.93;;
15706;SDS011;7953;54.302;10.128;2024-03-08T10:16:29;22.00;;;17.73;;
15706;SDS011;7953;54.302;10.128;2024-03-08T10:18:56;23.13;;;18.43;;
15706;SDS011;7953;54.302;10.128;2024-03-08T10:21:23;23.23;;;18.17;;
15706;SDS011;7953;54.302;10.128;2024-03-08T10:23:51;23.87;;;17.97;;
15706;SDS011;7953;54.302;10.128;2024-03-08T10:26:18;24.00;;;18.43;;
15706;SDS011;7953;54.302;10.128;2024-03-08T10:28:47;22.93;;;18.03;;
15706;SDS011;7953;54.302;10.128;2024-03-08T10:31:15;22.63;;;16.33;;
15706;SDS011;7953;54.302;10.128;2024-03-08T10:33:42;24.80;;;17.90;;
15706;SDS011;7953;54.302;10.128;2024-03-08T10:36:09;23.40;;;17.77;;
15706;SDS011;7953;54.302;10.128;2024-03-08T10:38:38;23.37;;;16.93;;
15706;SDS011;7953;54.302;10.128;2024-03-08T10:41:08;21.33;;;15.77;;
15706;SDS011;7953;54.302;10.128;2024-03-08T10:43:39;23.33;;;16.50;;
15706;SDS011;7953;54.302;10.128;2024-03-08T10:46:15;20.70;;;16.27;;
15706;SDS011;7953;54.302;10.128;2024-03-08T10:48:49;23.93;;;16.10;;
15706;SDS011;7953;54.302;10.128;2024-03-08T10:51:18;22.27;;;16.67;;
15706;SDS011;7953;54.302;10.128;2024-03-08T10:53:46;23.53;;;17.30;;
15706;SDS011;7953;54.302;10.128;2024-03-08T10:56:15;20.83;;;15.70;;
15706;SDS011;7953;54.302;10.128;2024-03-08T10:58:42;24.77;;;19.23;;
15706;SDS011;7953;54.302;10.128;2024-03-08T11:01:10;22.13;;;17.23;;
15706;SDS011;7953;54.302;10.128;2024-03-08T11:03:47;22.37;;;16.93;;
15706;SDS011;7953;54.302;10.128;2024-03-08T11:06:18;22.30;;;16.70;;
15706;SDS011;7953;54.302;10.128;2024-03-08T11:08:49;20.70;;;16.83;;
15706;SDS011;7953;54.302;10.128;2024-03-08T11:11:27;21.90;;;16.57;;
15706;SDS011;7953;54.302;10.128;2024-03-08T11:13:59;21.33;;;15.43;;
15706;SDS011;7953;54.302;10.128;2024-03-08T11:16:37;19.30;;;15.40;;
15706;SDS011;7953;54.302;10.128;2024-03-08T11:19:22;22.80;;;16.90;;
15706;SDS011;7953;54.302;10.128;2024-03-08T11:21:56;21.53;;;17.03;;
15706;SDS011;7953;54.302;10.128;2024-03-08T11:24:24;22.20;;;17.00;;
15706;SDS011;7953;54.302;10.128;2024-03-08T11:26:55;21.60;;;16.53;;
15706;SDS011;7953;54.302;10.128;2024-03-08T11:29:36;21.13;;;16.70;;
15706;SDS011;7953;54.302;10.128;2024-03-08T11:32:05;21.73;;;15.63;;
15706;SDS011;7953;54.302;10.128;2024-03-08T11:34:34;21.27;;;15.70;;
15706;SDS011;7953;54.302;10.128;2024-03-08T11:37:03;21.90;;;15.77;;
15706;SDS011;7953;54.302;10.128;2024-03-08T11:39:31;21.07;;;15.97;;
15706;SDS011;7953;54.302;10.128;2024-03-08T11:41:59;21.20;;;16.07;;
15706;SDS011;7953;54.302;10.128;2024-03-08T11:44:26;18.60;;;14.80;;
15706;SDS011;7953;54.302;10.128;2024-03-08T11:46:53;20.47;;;15.67;;
15706;SDS011;7953;54.302;10.128;2024-03-08T11:49:20;18.03;;;15.30;;
15706;SDS011;7953;54.302;10.128;2024-03-08T11:51:50;25.37;;;16.17;;
15706;SDS011;7953;54.302;10.128;2024-03-08T11:54:18;21.97;;;15.63;;
15706;SDS011;7953;54.302;10.128;2024-03-08T11:56:46;19.77;;;15.40;;
15706;SDS011;7953;54.302;10.128;2024-03-08T11:59:14;21.50;;;15.47;;
15706;SDS011;7953;54.302;10.128;2024-03-08T12:01:42;21.30;;;15.43;;
15706;SDS011;7953;54.302;10.128;2024-03-08T12:04:11;21.27;;;15.70;;
15706;SDS011;7953;54.302;10.128;2024-03-08T12:06:39;22.53;;;16.27;;
15706;SDS011;7953;54.302;10.128;2024-03-08T12:09:09;23.20;;;16.63;;
15706;SDS011;7953;54.302;10.128;2024-03-08T12:11:38;20.17;;;15.83;;
15706;SDS011;7953;54.302;10.128;2024-03-08T12:14:06;22.97;;;16.60;;
15706;SDS011;7953;54.302;10.128;2024-03-08T12:16:34;19.97;;;15.53;;
15706;SDS011;7953;54.302;10.128;2024-03-08T12:19:02;19.17;;;15.60;;
15706;SDS011;7953;54.302;10.128;2024-03-08T12:21:31;22.70;;;16.43;;
15706;SDS011;7953;54.302;10.128;2024-03-08T12:24:03;20.97;;;15.33;;
15706;SDS011;7953;54.302;10.128;2024-03-08T12:26:33;22.53;;;15.97;;
15706;SDS011;7953;54.302;10.128;2024-03-08T12:29:14;22.43;;;16.53;;
15706;SDS011;7953;54.302;10.128;2024-03-08T12:31:44;22.90;;;16.83;;
15706;SDS011;7953;54.302;10.128;2024-03-08T12:34:11;24.50;;;16.10;;
15706;SDS011;7953;54.302;10.128;2024-03-08T12:36:43;22.80;;;15.50;;
15706;SDS011;7953;54.302;10.128;2024-03-08T12:39:12;20.53;;;16.40;;
15706;SDS011;7953;54.302;10.128;2024-03-08T12:41:41;23.57;;;17.30;;
15706;SDS011;7953;54.302;10.128;2024-03-08T12:44:08;23.10;;;16.17;;
15706;SDS011;7953;54.302;10.128;2024-03-08T12:46:36;22.40;;;16.47;;
15706;SDS011;7953;54.302;10.128;2024-03-08T12:49:06;23.23;;;17.33;;
15706;SDS011;7953;54.302;10.128;2024-03-08T12:51:34;22.60;;;16.17;;
15706;SDS011;7953;54.302;10.128;2024-03-08T12:54:01;22.60;;;16.87;;
15706;SDS011;7953;54.302;10.128;2024-03-08T12:56:29;22.50;;;16.57;;
15706;SDS011;7953;54.302;10.128;2024-03-08T12:58:57;22.33;;;17.00;;
15706;SDS011;7953;54.302;10.128;2024-03-08T13:01:25;20.00;;;15.67;;
15706;SDS011;7953;54.302;10.128;2024-03-08T13:03:51;23.00;;;16.70;;
15706;SDS011;7953;54.302;10.128;2024-03-08T13:06:20;24.57;;;16.97;;
15706;SDS011;7953;54.302;10.128;2024-03-08T13:08:49;22.77;;;17.17;;
15706;SDS011;7953;54.302;10.128;2024-03-08T13:11:16;22.00;;;16.17;;
15706;SDS011;7953;54.302;10.128;2024-03-08T13:13:44;20.87;;;16.60;;
15706;SDS011;7953;54.302;10.128;2024-03-08T13:16:11;23.33;;;17.70;;
15706;SDS011;7953;54.302;10.128;2024-03-08T13:18:40;21.40;;;16.37;;
15706;SDS011;7953;54.302;10.128;2024-03-08T13:21:08;21.30;;;16.50;;
15706;SDS011;7953;54.302;10.128;2024-03-08T13:23:37;24.30;;;17.00;;
15706;SDS011;7953;54.302;10.128;2024-03-08T13:26:05;25.73;;;17.90;;
15706;SDS011;7953;54.302;10.128;2024-03-08T13:28:33;21.97;;;16.80;;
15706;SDS011;7953;54.302;10.128;2024-03-08T13:31:02;22.97;;;17.30;;
15706;SDS011;7953;54.302;10.128;2024-03-08T13:33:32;23.10;;;16.53;;
15706;SDS011;7953;54.302;10.128;2024-03-08T13:36:01;22.30;;;16.80;;
15706;SDS011;7953;54.302;10.128;2024-03-08T13:38:29;23.20;;;17.20;;
15706;SDS011;7953;54.302;10.128;2024-03-08T13:40:58;25.07;;;17.63;;
15706;SDS011;7953;54.302;10.128;2024-03-08T13:43:25;23.50;;;17.40;;
15706;SDS011;7953;54.302;10.128;2024-03-08T13:45:54;23.90;;;16.47;;
15706;SDS011;7953;54.302;10.128;2024-03-08T13:48:21;24.47;;;17.00;;
15706;SDS011;7953;54.302;10.128;2024-03-08T13:50:48;22.60;;;16.13;;
15706;SDS011;7953;54.302;10.128;2024-03-08T13:53:15;25.47;;;17.50;;
15706;SDS011;7953;54.302;10.128;2024-03-08T13:55:42;23.80;;;17.13;;
15706;SDS011;7953;54.302;10.128;2024-03-08T13:58:10;24.23;;;18.43;;
15706;SDS011;7953;54.302;10.128;2024-03-08T14:00:39;22.50;;;17.20;;
15706;SDS011;7953;54.302;10.128;2024-03-08T14:03:08;26.57;;;18.53;;
15706;SDS011;7953;54.302;10.128;2024-03-08T14:05:38;25.03;;;17.93;;
15706;SDS011;7953;54.302;10.128;2024-03-08T14:08:05;25.07;;;18.40;;
15706;SDS011;7953;54.302;10.128;2024-03-08T14:10:33;22.37;;;16.23;;
15706;SDS011;7953;54.302;10.128;2024-03-08T14:13:00;25.37;;;18.50;;
15706;SDS011;7953;54.302;10.128;2024-03-08T14:15:29;22.93;;;17.07;;
15706;SDS011;7953;54.302;10.128;2024-03-08T14:17:56;25.17;;;18.13;;
15706;SDS011;7953;54.302;10.128;2024-03-08T14:20:23;24.10;;;18.07;;
15706;SDS011;7953;54.302;10.128;2024-03-08T14:22:51;25.60;;;17.53;;
15706;SDS011;7953;54.302;10.128;2024-03-08T14:25:18;25.93;;;17.60;;
15706;SDS011;7953;54.302;10.128;2024-03-08T14:27:45;25.67;;;18.07;;